Time;durP1;ratioP1;P1;durP2;ratioP2;P2;SDS_P1;SDS_P2;PMS_P1;PMS_P2;Temp;Humidity;BMP_temperature;BMP_pressure;BME280_temperature;BME280_humidity;BME280_pressure;Samples;Min_cycle;Max_cycle;Signal;HPM_P1;HPM_P2
2021/12/06 00:01:40;;;;;;;;;;;;;;;;;;5023428;28;20361;-68
2021/12/06 00:04:22;;;;;;;;;;;;;;;;;;5025419;28;19925;-68
2021/12/06 00:06:53;;;;;;;;;;;;;;;;;;5027232;28;19925;-67
2021/12/06 00:09:26;;;;;;;;;;;;;;;;;;5022639;28;20321;-67
2021/12/06 00:11:59;;;;;;;;;;;;;;;;;;5007120;28;19925;-67
2021/12/06 00:14:30;;;;;;;;;;;;;;;;;;5024880;28;19933;-67
2021/12/06 00:17:03;;;;;;;;;;;;;;;;;;5027310;28;19925;-67
2021/12/06 00:19:33;;;;;;;;;;;;;;;;;;5023797;28;20313;-67
2021/12/06 00:22:03;;;;;;;;;;;;;;;;;;5023020;28;19925;-67
2021/12/06 00:24:34;;;;;;;;;;;;;;;;;;5022948;28;19939;-67
2021/12/06 00:27:04;;;;;;;;;;;;;;;;;;5025463;28;19979;-67
2021/12/06 00:29:37;;;;;;;;;;;;;;;;;;5022010;28;19925;-66
2021/12/06 00:32:07;;;;;;;;;;;;;;;;;;5021932;28;20011;-66
2021/12/06 00:34:37;;;;;;;;;;;;;;;;;;5022014;28;19933;-67
2021/12/06 00:37:30;;;;;;;;;;;;;;;;;;5026572;28;19970;-67
2021/12/06 00:40:00;;;;;;;;;;;;;;;;;;5019635;28;19929;-67
2021/12/06 00:42:31;;;;;;;;;;;;;;;;;;5020468;28;19929;-67
2021/12/06 00:45:00;;;;;;;;;;;;;;;;;;5022647;28;19936;-67
2021/12/06 00:47:30;;;;;;;;;;;;;;;;;;5027218;28;19925;-67
2021/12/06 00:50:01;;;;;;;;;;;;;;;;;;5023136;28;20298;-67
2021/12/06 00:52:31;;;;;;;;;;;;;;;;;;5029818;28;19929;-67
2021/12/06 00:55:03;;;;;;;;;;;;;;;;;;5031061;28;19958;-67
2021/12/06 00:57:32;;;;;;;;;;;;;;;;;;5025271;28;19932;-67
2021/12/06 01:00:01;;;;;;;;;;;;;;;;;;5027667;28;19929;-67
2021/12/06 01:02:31;;;;;;;;;;;;;;;;;;5027076;28;20310;-67
2021/12/06 01:05:02;;;;;;;;;;;;;;;;;;5029916;28;19925;-67
2021/12/06 01:07:33;;;;;;;;;;;;;;;;;;5028483;28;20263;-66
2021/12/06 01:10:03;;;;;;;;;;;;;;;;;;5023618;28;19929;-66
2021/12/06 01:12:32;;;;;;;;;;;;;;;;;;5028143;28;19948;-68
2021/12/06 01:15:01;;;;;;;;;;;;;;;;;;5011550;28;19933;-67
2021/12/06 01:17:34;;;;;;;;;;;;;;;;;;5028371;28;19960;-67
2021/12/06 01:20:04;;;;;;;;;;;;;;;;;;5024916;28;19929;-67
2021/12/06 01:22:42;;;;;;;;;;;;;;;;;;5028215;28;19936;-67
2021/12/06 01:25:30;;;;;;;;;;;;;;;;;;5029582;28;19939;-67
2021/12/06 01:34:04;;;;;;;;;;;;;;;;;;5016159;28;20544;-67
2021/12/06 01:39:28;;;;;;;;;;;;;;;;;;5014744;28;19925;-67
2021/12/06 01:42:02;;;;;;;;;;;;;;;;;;5025977;28;19925;-67
2021/12/06 01:44:32;;;;;;;;;;;;;;;;;;5027010;28;20436;-67
2021/12/06 01:47:14;;;;;;;;;;;;;;;;;;5026827;28;19936;-67
2021/12/06 01:49:44;;;;;;;;;;;;;;;;;;5028421;28;19925;-67
2021/12/06 01:52:11;;;;;;;;;;;;;;;;;;5026137;28;19925;-67
2021/12/06 01:54:42;;;;;;;;;;;;;;;;;;5014896;28;20339;-66
2021/12/06 01:57:15;;;;;;;;;;;;;;;;;;5025439;28;19929;-66
2021/12/06 01:59:42;;;;;;;;;;;;;;;;;;5029394;28;19936;-68
2021/12/06 02:02:11;;;;;;;;;;;;;;;;;;5021840;28;19964;-67
2021/12/06 02:04:41;;;;;;;;;;;;;;;;;;5028553;28;20405;-67
2021/12/06 02:07:16;;;;;;;;;;;;;;;;;;5026200;28;20462;-67
2021/12/06 02:09:46;;;;;;;;;;;;;;;;;;5025552;28;19933;-67
2021/12/06 02:12:16;;;;;;;;;;;;;;;;;;5026489;28;20397;-67
2021/12/06 02:17:26;;;;;;;;;;;;;;;;;;5027933;28;19952;-67
2021/12/06 02:19:59;;;;;;;;;;;;;;;;;;5024980;28;19933;-67
2021/12/06 02:22:33;;;;;;;;;;;;;;;;;;5028250;28;19940;-67
2021/12/06 02:25:01;;;;;;;;;;;;;;;;;;5029018;28;19937;-68
2021/12/06 02:27:29;;;;;;;;;;;;;;;;;;5022028;28;21066;-67
2021/12/06 02:29:58;;;;;;;;;;;;;;;;;;5022799;28;19939;-67
2021/12/06 02:32:35;;;;;;;;;;;;;;;;;;5010935;28;20008;-68
2021/12/06 02:35:06;;;;;;;;;;;;;;;;;;5026638;28;20374;-67
2021/12/06 02:37:38;;;;;;;;;;;;;;;;;;5035347;28;19978;-67
2021/12/06 02:40:09;;;;;;;;;;;;;;;;;;5022300;28;19925;-67
2021/12/06 02:42:38;;;;;;;;;;;;;;;;;;5029348;28;19982;-67
2021/12/06 02:45:06;;;;;;;;;;;;;;;;;;5023726;28;19925;-67
2021/12/06 02:47:38;;;;;;;;;;;;;;;;;;5028845;28;19931;-66
2021/12/06 02:50:21;;;;;;;;;;;;;;;;;;5029304;28;19960;-67
2021/12/06 02:52:54;;;;;;;;;;;;;;;;;;5033885;28;19924;-67
2021/12/06 02:55:31;;;;;;;;;;;;;;;;;;5028111;28;19932;-68
2021/12/06 02:57:59;;;;;;;;;;;;;;;;;;5022141;28;19936;-67
2021/12/06 03:00:29;;;;;;;;;;;;;;;;;;5025248;28;19936;-67
2021/12/06 03:02:59;;;;;;;;;;;;;;;;;;5026983;28;19925;-67
2021/12/06 03:05:28;;;;;;;;;;;;;;;;;;5020180;28;19924;-67
2021/12/06 03:07:59;;;;;;;;;;;;;;;;;;5022464;28;19935;-66
2021/12/06 03:10:42;;;;;;;;;;;;;;;;;;5027642;28;20438;-66
2021/12/06 03:13:12;;;;;;;;;;;;;;;;;;5025065;28;19925;-67
2021/12/06 03:15:42;;;;;;;;;;;;;;;;;;5027869;28;19925;-67
2021/12/06 03:18:14;;;;;;;;;;;;;;;;;;5022151;28;20170;-67
2021/12/06 03:20:43;;;;;;;;;;;;;;;;;;5029219;28;20386;-67
2021/12/06 03:23:13;;;;;;;;;;;;;;;;;;5028969;28;19925;-67
2021/12/06 03:25:44;;;;;;;;;;;;;;;;;;5019723;28;20403;-67
2021/12/06 03:28:18;;;;;;;;;;;;;;;;;;5025697;28;19936;-67
2021/12/06 03:30:47;;;;;;;;;;;;;;;;;;5023140;28;20069;-67
2021/12/06 03:33:21;;;;;;;;;;;;;;;;;;5019226;28;21312;-67
2021/12/06 03:35:52;;;;;;;;;;;;;;;;;;5024350;28;19951;-67
2021/12/06 03:38:26;;;;;;;;;;;;;;;;;;5021123;28;19929;-67
2021/12/06 03:40:57;;;;;;;;;;;;;;;;;;5024041;28;20463;-68
2021/12/06 03:43:28;;;;;;;;;;;;;;;;;;5026301;28;20260;-67
2021/12/06 03:46:12;;;;;;;;;;;;;;;;;;5024023;28;20492;-67
2021/12/06 03:48:40;;;;;;;;;;;;;;;;;;5025899;28;19936;-67
2021/12/06 03:51:12;;;;;;;;;;;;;;;;;;5027802;28;20024;-67
2021/12/06 03:53:48;;;;;;;;;;;;;;;;;;5024643;28;19968;-67
2021/12/06 03:56:22;;;;;;;;;;;;;;;;;;5024473;28;19957;-66
2021/12/06 03:58:53;;;;;;;;;;;;;;;;;;5026017;28;19929;-66
2021/12/06 04:01:22;;;;;;;;;;;;;;;;;;5008993;28;20519;-66
2021/12/06 04:03:51;;;;;;;;;;;;;;;;;;5021918;28;19948;-66
2021/12/06 04:06:20;;;;;;;;;;;;;;;;;;5025125;28;19928;-66
2021/12/06 04:08:51;;;;;;;;;;;;;;;;;;5019907;28;19925;-66
2021/12/06 04:11:22;;;;;;;;;;;;;;;;;;5023758;28;20262;-67
2021/12/06 04:13:56;;;;;;;;;;;;;;;;;;5024421;28;19925;-66
2021/12/06 04:16:26;;;;;;;;;;;;;;;;;;5024370;28;19932;-66
2021/12/06 04:18:56;;;;;;;;;;;;;;;;;;5026885;28;19925;-67
2021/12/06 04:21:27;;;;;;;;;;;;;;;;;;5024681;28;20430;-67
2021/12/06 04:23:57;;;;;;;;;;;;;;;;;;5011583;28;19925;-67
2021/12/06 04:26:27;;;;;;;;;;;;;;;;;;5028196;28;20485;-67
2021/12/06 04:29:01;;;;;;;;;;;;;;;;;;5031532;28;20464;-66
2021/12/06 04:31:47;;;;;;;;;;;;;;;;;;5029779;28;19976;-67
2021/12/06 04:34:15;;;;;;;;;;;;;;;;;;5028391;28;19925;-67
2021/12/06 04:36:48;;;;;;;;;;;;;;;;;;5030527;28;19933;-67
2021/12/06 04:39:16;;;;;;;;;;;;;;;;;;5024283;28;20305;-66
2021/12/06 04:41:44;;;;;;;;;;;;;;;;;;5029860;28;19933;-67
2021/12/06 04:44:12;;;;;;;;;;;;;;;;;;5025135;28;19925;-66
2021/12/06 04:46:43;;;;;;;;;;;;;;;;;;5029856;28;19929;-66
2021/12/06 04:49:13;;;;;;;;;;;;;;;;;;5030742;28;19933;-66
2021/12/06 04:51:46;;;;;;;;;;;;;;;;;;5033583;28;19925;-67
2021/12/06 04:54:17;;;;;;;;;;;;;;;;;;5035944;28;20266;-66
2021/12/06 04:56:45;;;;;;;;;;;;;;;;;;5032350;28;19931;-66
2021/12/06 04:59:16;;;;;;;;;;;;;;;;;;5032040;28;19925;-66
2021/12/06 05:01:43;;;;;;;;;;;;;;;;;;5030210;28;19925;-67
2021/12/06 05:04:15;;;;;;;;;;;;;;;;;;5029340;28;20526;-66
2021/12/06 05:06:47;;;;;;;;;;;;;;;;;;5028640;28;19925;-66
2021/12/06 05:09:17;;;;;;;;;;;;;;;;;;5024597;28;19937;-66
2021/12/06 05:11:49;;;;;;;;;;;;;;;;;;5028114;28;19957;-67
2021/12/06 05:14:17;;;;;;;;;;;;;;;;;;5026696;28;19958;-66
2021/12/06 05:16:46;;;;;;;;;;;;;;;;;;5030090;28;19933;-67
2021/12/06 05:19:19;;;;;;;;;;;;;;;;;;5028136;28;19933;-67
2021/12/06 05:21:50;;;;;;;;;;;;;;;;;;5018291;28;20738;-67
2021/12/06 05:24:23;;;;;;;;;;;;;;;;;;5027102;28;19925;-66
2021/12/06 05:26:58;;;;;;;;;;;;;;;;;;5038240;28;19929;-66
2021/12/06 05:29:30;;;;;;;;;;;;;;;;;;5027612;28;19925;-66
2021/12/06 05:32:02;;;;;;;;;;;;;;;;;;5024769;28;20270;-66
2021/12/06 05:34:37;;;;;;;;;;;;;;;;;;5029445;28;19951;-67
2021/12/06 05:37:10;;;;;;;;;;;;;;;;;;5029335;28;19944;-67
2021/12/06 05:39:39;;;;;;;;;;;;;;;;;;5027174;28;20350;-66
2021/12/06 05:42:08;;;;;;;;;;;;;;;;;;5027677;28;19933;-66
2021/12/06 05:44:49;;;;;;;;;;;;;;;;;;5027562;28;19947;-66
2021/12/06 05:47:20;;;;;;;;;;;;;;;;;;5028051;28;19928;-66
2021/12/06 05:49:48;;;;;;;;;;;;;;;;;;5024075;28;19936;-67
2021/12/06 05:52:19;;;;;;;;;;;;;;;;;;5030520;28;19929;-66
2021/12/06 05:54:53;;;;;;;;;;;;;;;;;;5027010;28;20010;-67
2021/12/06 05:57:26;;;;;;;;;;;;;;;;;;5026357;28;19929;-66
2021/12/06 05:59:53;;;;;;;;;;;;;;;;;;5026401;28;19925;-66
2021/12/06 06:02:22;;;;;;;;;;;;;;;;;;5026485;28;19929;-66
2021/12/06 06:04:55;;;;;;;;;;;;;;;;;;5029645;28;20472;-66
2021/12/06 06:07:25;;;;;;;;;;;;;;;;;;5027337;28;19944;-66
2021/12/06 06:09:57;;;;;;;;;;;;;;;;;;5022891;28;20323;-66
2021/12/06 06:12:34;;;;;;;;;;;;;;;;;;5028979;28;20393;-66
2021/12/06 06:15:04;;;;;;;;;;;;;;;;;;5012745;28;19933;-67
2021/12/06 06:17:43;;;;;;;;;;;;;;;;;;5026320;28;19932;-66
2021/12/06 06:20:16;;;;;;;;;;;;;;;;;;5025078;28;19928;-67
2021/12/06 06:22:57;;;;;;;;;;;;;;;;;;5027402;28;20413;-66
2021/12/06 06:25:38;;;;;;;;;;;;;;;;;;5029490;28;19929;-66
2021/12/06 06:28:09;;;;;;;;;;;;;;;;;;5021244;28;19935;-67
2021/12/06 06:30:39;;;;;;;;;;;;;;;;;;5028480;28;19933;-66
2021/12/06 06:33:09;;;;;;;;;;;;;;;;;;5024227;28;20402;-66
2021/12/06 06:35:41;;;;;;;;;;;;;;;;;;5028948;28;19929;-66
2021/12/06 06:38:10;;;;;;;;;;;;;;;;;;5023291;28;19936;-66
2021/12/06 06:40:40;;;;;;;;;;;;;;;;;;5024179;28;19932;-67
2021/12/06 06:43:07;;;;;;;;;;;;;;;;;;5027335;28;20013;-66
2021/12/06 06:45:38;;;;;;;;;;;;;;;;;;5022352;28;19941;-66
2021/12/06 06:48:06;;;;;;;;;;;;;;;;;;5023263;28;19937;-66
2021/12/06 06:50:38;;;;;;;;;;;;;;;;;;5027850;28;19933;-66
2021/12/06 06:53:08;;;;;;;;;;;;;;;;;;5025525;28;19929;-65
2021/12/06 06:55:39;;;;;;;;;;;;;;;;;;5023824;28;20290;-66
2021/12/06 06:58:11;;;;;;;;;;;;;;;;;;5021907;28;19925;-65
2021/12/06 07:00:41;;;;;;;;;;;;;;;;;;5026747;28;19926;-66
2021/12/06 07:03:13;;;;;;;;;;;;;;;;;;5027652;28;19931;-65
2021/12/06 07:05:45;;;;;;;;;;;;;;;;;;5023535;28;19925;-66
2021/12/06 07:08:14;;;;;;;;;;;;;;;;;;5024248;28;19979;-67
2021/12/06 07:10:44;;;;;;;;;;;;;;;;;;5008249;28;19925;-66
2021/12/06 07:13:47;;;;;;;;;;;;;;;;;;5029391;28;20456;-66
2021/12/06 07:16:18;;;;;;;;;;;;;;;;;;5030105;28;20028;-65
2021/12/06 07:18:48;;;;;;;;;;;;;;;;;;5025275;28;20420;-65
2021/12/06 07:21:24;;;;;;;;;;;;;;;;;;5025141;28;19956;-66
2021/12/06 07:23:55;;;;;;;;;;;;;;;;;;5023795;28;19944;-65
2021/12/06 07:26:26;;;;;;;;;;;;;;;;;;5038262;28;20175;-65
2021/12/06 07:28:56;;;;;;;;;;;;;;;;;;5017800;28;19925;-67
2021/12/06 07:31:26;;;;;;;;;;;;;;;;;;5029594;28;19936;-69
2021/12/06 07:33:56;;;;;;;;;;;;;;;;;;5019784;28;19929;-66
2021/12/06 07:36:30;;;;;;;;;;;;;;;;;;5032425;28;20044;-66
2021/12/06 07:39:00;;;;;;;;;;;;;;;;;;5023270;28;19925;-67
2021/12/06 07:41:29;;;;;;;;;;;;;;;;;;5031530;28;20023;-67
2021/12/06 07:44:04;;;;;;;;;;;;;;;;;;5017664;28;20386;-68
2021/12/06 07:46:37;;;;;;;;;;;;;;;;;;5019421;28;19933;-69
2021/12/06 07:49:07;;;;;;;;;;;;;;;;;;5023865;28;19937;-67
2021/12/06 07:51:37;;;;;;;;;;;;;;;;;;5017617;28;19990;-69
2021/12/06 07:54:06;;;;;;;;;;;;;;;;;;5020165;28;19932;-68
2021/12/06 07:56:35;;;;;;;;;;;;;;;;;;5015752;28;20574;-70
2021/12/06 07:59:07;;;;;;;;;;;;;;;;;;5022525;28;19925;-70
2021/12/06 08:01:34;;;;;;;;;;;;;;;;;;5021835;28;19980;-64
2021/12/06 08:04:04;;;;;;;;;;;;;;;;;;5018439;28;20024;-66
2021/12/06 08:06:33;;;;;;;;;;;;;;;;;;5027701;28;19925;-67
2021/12/06 08:09:05;;;;;;;;;;;;;;;;;;5018699;28;19940;-69
2021/12/06 08:11:36;;;;;;;;;;;;;;;;;;5028939;28;19933;-67
2021/12/06 08:14:03;;;;;;;;;;;;;;;;;;5026623;28;20329;-68
2021/12/06 08:16:30;;;;;;;;;;;;;;;;;;5025500;28;19934;-69
2021/12/06 08:19:00;;;;;;;;;;;;;;;;;;5028092;28;19935;-68
2021/12/06 08:21:28;;;;;;;;;;;;;;;;;;5021884;28;19982;-71
2021/12/06 08:23:59;;;;;;;;;;;;;;;;;;5025181;28;20361;-70
2021/12/06 08:26:29;;;;;;;;;;;;;;;;;;5026719;28;19925;-69
2021/12/06 08:28:58;;;;;;;;;;;;;;;;;;5028518;28;19936;-70
2021/12/06 08:31:27;;;;;;;;;;;;;;;;;;5027489;28;19932;-68
2021/12/06 08:33:58;;;;;;;;;;;;;;;;;;5021325;28;19925;-69
2021/12/06 08:36:28;;;;;;;;;;;;;;;;;;5025439;28;19932;-70
2021/12/06 08:39:00;;;;;;;;;;;;;;;;;;5023090;28;19976;-69
2021/12/06 08:41:30;;;;;;;;;;;;;;;;;;5028508;28;19925;-68
2021/12/06 08:44:04;;;;;;;;;;;;;;;;;;5018831;28;19944;-66
2021/12/06 08:46:33;;;;;;;;;;;;;;;;;;5023407;28;19936;-70
2021/12/06 08:49:06;;;;;;;;;;;;;;;;;;5018489;28;19944;-70
2021/12/06 08:51:37;;;;;;;;;;;;;;;;;;4994111;28;19929;-70
2021/12/06 08:54:05;;;;;;;;;;;;;;;;;;5021314;28;19925;-70
2021/12/06 08:56:36;;;;;;;;;;;;;;;;;;5021288;28;20431;-70
2021/12/06 08:59:11;;;;;;;;;;;;;;;;;;5018041;28;19933;-71
2021/12/06 09:01:40;;;;;;;;;;;;;;;;;;5024142;28;19929;-69
2021/12/06 09:04:33;;;;;;;;;;;;;;;;;;5023389;28;20147;-70
2021/12/06 09:07:10;;;;;;;;;;;;;;;;;;5019671;28;19929;-67
2021/12/06 09:09:55;;;;;;;;;;;;;;;;;;5022179;28;20025;-68
2021/12/06 09:12:26;;;;;;;;;;;;;;;;;;5026496;28;19986;-68
2021/12/06 09:14:56;;;;;;;;;;;;;;;;;;5022518;28;19925;-69
2021/12/06 09:17:25;;;;;;;;;;;;;;;;;;5024286;28;19943;-68
2021/12/06 09:19:55;;;;;;;;;;;;;;;;;;5020380;28;19955;-67
2021/12/06 09:22:28;;;;;;;;;;;;;;;;;;5025169;28;20295;-68
2021/12/06 09:25:03;;;;;;;;;;;;;;;;;;5020622;28;20052;-68
2021/12/06 09:27:32;;;;;;;;;;;;;;;;;;5027942;28;19933;-67
2021/12/06 09:30:03;;;;;;;;;;;;;;;;;;5023522;28;19929;-69
2021/12/06 09:32:33;;;;;;;;;;;;;;;;;;5025552;28;19948;-68
2021/12/06 09:35:03;;;;;;;;;;;;;;;;;;5028148;28;19933;-70
2021/12/06 09:37:36;;;;;;;;;;;;;;;;;;5011863;28;19925;-69
2021/12/06 09:40:05;;;;;;;;;;;;;;;;;;5023277;28;20503;-68
2021/12/06 09:42:37;;;;;;;;;;;;;;;;;;5030138;28;19924;-69
2021/12/06 09:45:06;;;;;;;;;;;;;;;;;;5025448;28;19926;-69
2021/12/06 09:47:35;;;;;;;;;;;;;;;;;;5029056;28;19958;-68
2021/12/06 09:50:06;;;;;;;;;;;;;;;;;;5027776;28;19930;-68
2021/12/06 09:52:42;;;;;;;;;;;;;;;;;;5011395;28;19933;-67
2021/12/06 09:55:10;;;;;;;;;;;;;;;;;;5026473;28;20006;-68
2021/12/06 09:57:41;;;;;;;;;;;;;;;;;;5024642;28;19937;-71
2021/12/06 10:00:10;;;;;;;;;;;;;;;;;;5024716;28;19929;-68
2021/12/06 10:02:43;;;;;;;;;;;;;;;;;;5025196;28;19978;-69
2021/12/06 10:05:16;;;;;;;;;;;;;;;;;;5022401;28;19925;-70
2021/12/06 10:07:46;;;;;;;;;;;;;;;;;;5017403;28;20347;-71
2021/12/06 10:10:15;;;;;;;;;;;;;;;;;;5022209;28;19925;-71
2021/12/06 10:12:51;;;;;;;;;;;;;;;;;;5024421;28;19929;-70
2021/12/06 10:15:18;;;;;;;;;;;;;;;;;;5026638;28;19935;-69
2021/12/06 10:17:47;;;;;;;;;;;;;;;;;;5024735;28;20504;-66
2021/12/06 10:20:15;;;;;;;;;;;;;;;;;;5022298;28;19925;-68
2021/12/06 10:22:45;;;;;;;;;;;;;;;;;;5025259;28;19931;-68
2021/12/06 10:25:16;;;;;;;;;;;;;;;;;;5023382;28;19929;-67
2021/12/06 10:28:05;;;;;;;;;;;;;;;;;;5021403;28;19944;-70
2021/12/06 10:30:36;;;;;;;;;;;;;;;;;;5026800;28;19933;-74
2021/12/06 10:33:05;;;;;;;;;;;;;;;;;;5019048;28;19925;-72
2021/12/06 10:35:36;;;;;;;;;;;;;;;;;;5026671;28;19975;-69
2021/12/06 10:38:08;;;;;;;;;;;;;;;;;;5023911;28;19925;-69
2021/12/06 10:40:40;;;;;;;;;;;;;;;;;;5025668;28;20024;-69
2021/12/06 10:43:09;;;;;;;;;;;;;;;;;;5025790;28;19940;-69
2021/12/06 10:45:38;;;;;;;;;;;;;;;;;;5026512;28;19932;-70
2021/12/06 10:48:09;;;;;;;;;;;;;;;;;;5020047;28;20486;-69
2021/12/06 10:50:38;;;;;;;;;;;;;;;;;;5016343;28;19933;-72
2021/12/06 10:53:08;;;;;;;;;;;;;;;;;;5024755;28;19932;-71
2021/12/06 10:55:40;;;;;;;;;;;;;;;;;;5019835;28;19987;-69
2021/12/06 10:58:14;;;;;;;;;;;;;;;;;;5017470;28;19933;-68
2021/12/06 11:00:45;;;;;;;;;;;;;;;;;;5022339;28;19933;-68
2021/12/06 11:03:21;;;;;;;;;;;;;;;;;;5020865;28;19929;-66
2021/12/06 11:05:49;;;;;;;;;;;;;;;;;;5011838;28;19936;-67
2021/12/06 11:08:21;;;;;;;;;;;;;;;;;;5023559;28;19937;-68
2021/12/06 11:10:52;;;;;;;;;;;;;;;;;;5024514;28;19929;-70
2021/12/06 11:13:23;;;;;;;;;;;;;;;;;;5018007;28;19959;-71
2021/12/06 11:15:56;;;;;;;;;;;;;;;;;;5005043;28;19925;-68
2021/12/06 11:18:27;;;;;;;;;;;;;;;;;;5022769;28;19943;-70
2021/12/06 11:20:59;;;;;;;;;;;;;;;;;;5019106;28;19932;-70
2021/12/06 11:23:33;;;;;;;;;;;;;;;;;;5021856;28;20353;-71
2021/12/06 11:26:04;;;;;;;;;;;;;;;;;;5024612;28;19929;-72
2021/12/06 11:28:35;;;;;;;;;;;;;;;;;;5025754;28;20359;-66
2021/12/06 11:31:06;;;;;;;;;;;;;;;;;;5023458;28;20267;-68
2021/12/06 11:33:34;;;;;;;;;;;;;;;;;;5019837;28;20562;-70
2021/12/06 11:36:03;;;;;;;;;;;;;;;;;;5021182;28;19982;-70
2021/12/06 11:38:35;;;;;;;;;;;;;;;;;;5027200;28;19932;-69
2021/12/06 11:41:04;;;;;;;;;;;;;;;;;;5023978;28;19925;-69
2021/12/06 11:43:34;;;;;;;;;;;;;;;;;;5022158;28;19925;-68
2021/12/06 11:46:08;;;;;;;;;;;;;;;;;;5021723;28;19955;-70
2021/12/06 11:48:39;;;;;;;;;;;;;;;;;;5030939;28;19925;-70
2021/12/06 11:51:11;;;;;;;;;;;;;;;;;;5022339;28;19929;-71
2021/12/06 11:53:41;;;;;;;;;;;;;;;;;;5023657;28;19940;-70
2021/12/06 11:56:14;;;;;;;;;;;;;;;;;;5019533;28;20547;-69
2021/12/06 11:58:44;;;;;;;;;;;;;;;;;;5023848;28;19925;-69
2021/12/06 12:01:14;;;;;;;;;;;;;;;;;;5019050;28;19932;-69
2021/12/06 12:03:43;;;;;;;;;;;;;;;;;;5025272;28;19925;-70
2021/12/06 12:06:14;;;;;;;;;;;;;;;;;;5018435;28;19932;-71
2021/12/06 12:08:45;;;;;;;;;;;;;;;;;;5017906;28;20584;-68
2021/12/06 12:11:12;;;;;;;;;;;;;;;;;;5023734;28;19925;-70
2021/12/06 12:13:43;;;;;;;;;;;;;;;;;;4999622;28;20346;-70
2021/12/06 12:16:13;;;;;;;;;;;;;;;;;;5019335;28;19935;-68
2021/12/06 12:18:45;;;;;;;;;;;;;;;;;;5022754;28;20311;-69
2021/12/06 12:21:15;;;;;;;;;;;;;;;;;;5015642;28;19929;-70
2021/12/06 12:23:46;;;;;;;;;;;;;;;;;;5024631;28;19929;-70
2021/12/06 12:26:30;;;;;;;;;;;;;;;;;;5017626;28;19921;-71
2021/12/06 12:29:11;;;;;;;;;;;;;;;;;;5026447;28;19940;-67
2021/12/06 12:31:39;;;;;;;;;;;;;;;;;;5025691;28;19933;-69
2021/12/06 12:34:10;;;;;;;;;;;;;;;;;;5010459;28;21560;-68
2021/12/06 12:36:38;;;;;;;;;;;;;;;;;;5019012;28;19929;-71
2021/12/06 12:39:08;;;;;;;;;;;;;;;;;;5024792;28;20276;-71
2021/12/06 12:41:42;;;;;;;;;;;;;;;;;;5021281;28;19933;-69
2021/12/06 12:44:20;;;;;;;;;;;;;;;;;;5022211;28;19986;-69
2021/12/06 12:47:05;;;;;;;;;;;;;;;;;;5020951;28;19939;-71
2021/12/06 12:49:36;;;;;;;;;;;;;;;;;;5015045;28;19940;-67
2021/12/06 12:52:10;;;;;;;;;;;;;;;;;;5022791;28;19960;-69
2021/12/06 12:54:41;;;;;;;;;;;;;;;;;;5027439;28;19929;-69
2021/12/06 12:57:14;;;;;;;;;;;;;;;;;;5018990;28;19933;-68
2021/12/06 12:59:44;;;;;;;;;;;;;;;;;;5021532;28;19929;-68
2021/12/06 13:02:18;;;;;;;;;;;;;;;;;;5020034;28;19939;-68
2021/12/06 13:04:49;;;;;;;;;;;;;;;;;;5022422;28;21538;-69
2021/12/06 13:07:20;;;;;;;;;;;;;;;;;;5017300;28;19933;-69
2021/12/06 13:09:48;;;;;;;;;;;;;;;;;;5020764;28;19933;-68
2021/12/06 13:12:18;;;;;;;;;;;;;;;;;;5017770;28;19932;-68
2021/12/06 13:14:54;;;;;;;;;;;;;;;;;;5022833;28;19929;-68
2021/12/06 13:17:43;;;;;;;;;;;;;;;;;;5024263;28;19925;-68
2021/12/06 13:20:13;;;;;;;;;;;;;;;;;;5022003;28;19937;-68
2021/12/06 13:22:47;;;;;;;;;;;;;;;;;;5025342;28;20543;-68
2021/12/06 13:25:15;;;;;;;;;;;;;;;;;;5026993;28;19933;-72
2021/12/06 13:27:46;;;;;;;;;;;;;;;;;;5040907;28;19977;-73
2021/12/06 13:30:20;;;;;;;;;;;;;;;;;;5040464;28;19929;-70
2021/12/06 13:32:49;;;;;;;;;;;;;;;;;;5037084;28;20071;-70
2021/12/06 13:35:20;;;;;;;;;;;;;;;;;;5041331;28;19909;-70
2021/12/06 13:37:49;;;;;;;;;;;;;;;;;;5022638;28;21401;-71
2021/12/06 13:40:17;;;;;;;;;;;;;;;;;;5026087;28;19926;-71
2021/12/06 13:42:49;;;;;;;;;;;;;;;;;;5025849;28;19940;-69
2021/12/06 13:45:19;;;;;;;;;;;;;;;;;;5027161;28;19935;-73
2021/12/06 13:47:48;;;;;;;;;;;;;;;;;;5024620;28;19929;-74
2021/12/06 13:50:20;;;;;;;;;;;;;;;;;;5019773;28;19926;-73
2021/12/06 13:53:03;;;;;;;;;;;;;;;;;;5005988;28;19932;-72
2021/12/06 13:55:37;;;;;;;;;;;;;;;;;;5025592;28;19925;-75
2021/12/06 13:58:09;;;;;;;;;;;;;;;;;;5018626;28;19944;-75
2021/12/06 14:00:42;;;;;;;;;;;;;;;;;;5023563;28;19943;-70
2021/12/06 14:03:32;;;;;;;;;;;;;;;;;;5028066;28;20545;-72
2021/12/06 14:06:01;;;;;;;;;;;;;;;;;;5021402;28;19933;-73
2021/12/06 14:08:30;;;;;;;;;;;;;;;;;;5019322;28;20547;-69
2021/12/06 14:10:57;;;;;;;;;;;;;;;;;;5026557;28;20415;-72
2021/12/06 14:13:34;;;;;;;;;;;;;;;;;;5012392;28;19943;-71
2021/12/06 14:16:09;;;;;;;;;;;;;;;;;;5022992;28;19940;-71
2021/12/06 14:18:40;;;;;;;;;;;;;;;;;;5025425;28;20429;-71
2021/12/06 14:21:08;;;;;;;;;;;;;;;;;;5024787;28;19990;-70
2021/12/06 14:23:41;;;;;;;;;;;;;;;;;;5029459;28;20014;-69
2021/12/06 14:26:10;;;;;;;;;;;;;;;;;;5013691;28;19933;-70
2021/12/06 14:28:41;;;;;;;;;;;;;;;;;;5024857;28;19936;-73
2021/12/06 14:31:11;;;;;;;;;;;;;;;;;;5026343;28;19937;-70
2021/12/06 14:33:41;;;;;;;;;;;;;;;;;;5021959;28;19956;-73
2021/12/06 14:36:09;;;;;;;;;;;;;;;;;;5023795;28;19933;-73
2021/12/06 14:38:41;;;;;;;;;;;;;;;;;;5023354;28;19933;-71
2021/12/06 14:41:10;;;;;;;;;;;;;;;;;;5025983;28;19933;-68
2021/12/06 14:43:39;;;;;;;;;;;;;;;;;;5022983;28;19925;-69
2021/12/06 14:46:08;;;;;;;;;;;;;;;;;;5021109;28;19933;-73
2021/12/06 14:48:37;;;;;;;;;;;;;;;;;;5008747;28;19940;-72
2021/12/06 14:51:11;;;;;;;;;;;;;;;;;;5028180;28;19925;-72
2021/12/06 14:54:03;;;;;;;;;;;;;;;;;;5023963;28;19933;-75
2021/12/06 14:56:51;;;;;;;;;;;;;;;;;;5005254;28;19932;-72
2021/12/06 14:59:24;;;;;;;;;;;;;;;;;;5019825;28;19925;-71
2021/12/06 15:02:08;;;;;;;;;;;;;;;;;;5023639;28;19928;-73
2021/12/06 15:04:53;;;;;;;;;;;;;;;;;;5024393;28;19932;-72
2021/12/06 15:07:44;;;;;;;;;;;;;;;;;;5025937;28;20067;-72
2021/12/06 15:10:13;;;;;;;;;;;;;;;;;;5020944;28;20637;-71
2021/12/06 15:12:40;;;;;;;;;;;;;;;;;;5024556;28;19929;-71
2021/12/06 15:15:11;;;;;;;;;;;;;;;;;;5027729;28;19933;-71
2021/12/06 15:17:39;;;;;;;;;;;;;;;;;;5021751;28;19939;-71
2021/12/06 15:20:08;;;;;;;;;;;;;;;;;;5016873;28;19925;-71
2021/12/06 15:22:41;;;;;;;;;;;;;;;;;;4997575;28;19925;-71
2021/12/06 15:28:33;;;;;;;;;;;;;;;;;;4985970;28;20147;-72
2021/12/06 15:31:07;;;;;;;;;;;;;;;;;;4991912;28;19921;-72
2021/12/06 15:33:36;;;;;;;;;;;;;;;;;;4983650;28;19988;-72
2021/12/06 15:36:06;;;;;;;;;;;;;;;;;;4992791;28;19926;-71
2021/12/06 15:38:36;;;;;;;;;;;;;;;;;;4983470;28;19957;-71
2021/12/06 15:41:09;;;;;;;;;;;;;;;;;;4994808;28;19929;-71
2021/12/06 15:43:40;;;;;;;;;;;;;;;;;;4984770;28;19926;-71
2021/12/06 15:46:10;;;;;;;;;;;;;;;;;;4981058;28;19961;-71
2021/12/06 15:48:43;;;;;;;;;;;;;;;;;;4985491;28;19933;-71
2021/12/06 15:51:22;;;;;;;;;;;;;;;;;;4987086;28;19937;-72
2021/12/06 15:54:06;;;;;;;;;;;;;;;;;;4982957;28;19937;-71
2021/12/06 15:56:38;;;;;;;;;;;;;;;;;;4983263;28;19934;-71
2021/12/06 15:59:09;;;;;;;;;;;;;;;;;;4984582;28;19934;-71
2021/12/06 16:01:42;;;;;;;;;;;;;;;;;;4980833;28;19930;-71
2021/12/06 16:04:13;;;;;;;;;;;;;;;;;;4982025;28;19938;-71
2021/12/06 16:06:42;;;;;;;;;;;;;;;;;;4982672;28;19926;-71
2021/12/06 16:09:16;;;;;;;;;;;;;;;;;;4978734;28;20371;-70
2021/12/06 16:11:45;;;;;;;;;;;;;;;;;;4982575;28;19945;-71
2021/12/06 16:14:14;;;;;;;;;;;;;;;;;;4983261;28;19936;-71
2021/12/06 16:16:42;;;;;;;;;;;;;;;;;;4984714;28;19956;-71
2021/12/06 16:19:11;;;;;;;;;;;;;;;;;;4983202;28;19940;-71
2021/12/06 16:21:41;;;;;;;;;;;;;;;;;;4996875;28;19991;-70
2021/12/06 16:24:10;;;;;;;;;;;;;;;;;;5026236;28;19986;-71
2021/12/06 16:26:43;;;;;;;;;;;;;;;;;;5030713;28;19933;-71
2021/12/06 16:29:17;;;;;;;;;;;;;;;;;;5027203;28;20019;-71
2021/12/06 16:31:47;;;;;;;;;;;;;;;;;;5030142;28;20235;-71
2021/12/06 16:34:20;;;;;;;;;;;;;;;;;;5027273;28;19933;-70
2021/12/06 16:36:53;;;;;;;;;;;;;;;;;;4996663;28;19929;-71
2021/12/06 16:39:31;;;;;;;;;;;;;;;;;;5026557;28;19925;-70
2021/12/06 16:41:58;;;;;;;;;;;;;;;;;;5029412;28;19925;-71
2021/12/06 16:44:29;;;;;;;;;;;;;;;;;;5024819;28;20024;-71
2021/12/06 16:47:01;;;;;;;;;;;;;;;;;;5032450;28;19925;-70
2021/12/06 16:49:35;;;;;;;;;;;;;;;;;;5027772;28;19925;-70
2021/12/06 16:52:03;;;;;;;;;;;;;;;;;;5029326;28;19936;-70
2021/12/06 16:54:30;;;;;;;;;;;;;;;;;;5024384;28;19951;-71
2021/12/06 16:57:04;;;;;;;;;;;;;;;;;;5024751;28;19928;-71
2021/12/06 16:59:33;;;;;;;;;;;;;;;;;;5027202;28;19935;-70
2021/12/06 17:02:05;;;;;;;;;;;;;;;;;;5027116;28;19936;-71
2021/12/06 17:04:37;;;;;;;;;;;;;;;;;;5025423;28;19988;-74
2021/12/06 17:07:08;;;;;;;;;;;;;;;;;;5022817;28;19936;-74
2021/12/06 17:09:36;;;;;;;;;;;;;;;;;;5021195;28;19933;-74
2021/12/06 17:12:07;;;;;;;;;;;;;;;;;;5020808;28;20551;-75
2021/12/06 17:14:36;;;;;;;;;;;;;;;;;;5024352;28;19978;-74
2021/12/06 17:17:08;;;;;;;;;;;;;;;;;;5027127;28;19925;-74
2021/12/06 17:19:38;;;;;;;;;;;;;;;;;;5025899;28;19928;-72
2021/12/06 17:22:10;;;;;;;;;;;;;;;;;;5019446;28;19933;-73
2021/12/06 17:24:44;;;;;;;;;;;;;;;;;;5025224;28;20016;-71
2021/12/06 17:27:12;;;;;;;;;;;;;;;;;;5010570;28;19925;-72
2021/12/06 17:29:43;;;;;;;;;;;;;;;;;;5027011;28;19997;-71
2021/12/06 17:32:13;;;;;;;;;;;;;;;;;;5017783;28;20299;-73